Time;durP1;ratioP1;P1;durP2;ratioP2;P2;SDS_P1;SDS_P2;PMS_P1;PMS_P2;Temp;Humidity;BMP_temperature;BMP_pressure;BME280_temperature;BME280_humidity;BME280_pressure;Samples;Min_cycle;Max_cycle;Signal;HPM_P1;HPM_P2
2022/08/08 00:00:58;;;;;;;2.30;1.70;;;;;;;;;;5039830;28;20095;-71
2022/08/08 00:03:36;;;;;;;3.15;2.25;;;;;;;;;;5039602;28;20075;-71
2022/08/08 00:06:10;;;;;;;2.30;2.10;;;;;;;;;;5039837;28;20052;-72
2022/08/08 00:08:39;;;;;;;2.35;2.15;;;;;;;;;;5038555;28;20549;-71
2022/08/08 00:11:19;;;;;;;6.60;2.58;;;;;;;;;;5040109;28;20056;-71
2022/08/08 00:13:53;;;;;;;2.33;2.13;;;;;;;;;;5038353;28;20114;-71
2022/08/08 00:16:23;;;;;;;3.15;2.90;;;;;;;;;;5040320;28;20097;-71
2022/08/08 00:18:56;;;;;;;2.67;2.40;;;;;;;;;;5039533;28;20053;-71
2022/08/08 00:21:27;;;;;;;2.60;2.20;;;;;;;;;;5040166;28;20095;-71
2022/08/08 00:23:59;;;;;;;5.93;2.40;;;;;;;;;;5038307;28;20593;-71
2022/08/08 00:26:35;;;;;;;2.60;2.28;;;;;;;;;;5039782;28;20049;-71
2022/08/08 00:29:03;;;;;;;3.05;2.10;;;;;;;;;;5039024;28;20048;-71
2022/08/08 00:31:33;;;;;;;5.43;1.90;;;;;;;;;;5038196;28;20053;-71
2022/08/08 00:37:36;;;;;;;2.88;2.38;;;;;;;;;;5012008;28;20059;-71
2022/08/08 00:40:23;;;;;;;3.55;2.17;;;;;;;;;;5039400;28;20041;-72
2022/08/08 00:43:27;;;;;;;4.13;2.05;;;;;;;;;;5022750;28;20056;-71
2022/08/08 00:46:23;;;;;;;2.10;1.90;;;;;;;;;;5040928;28;20448;-71
2022/08/08 00:50:00;;;;;;;2.35;1.95;;;;;;;;;;5026857;28;20203;-71
2022/08/08 00:52:45;;;;;;;2.28;2.08;;;;;;;;;;4940947;28;20054;-71
2022/08/08 00:55:29;;;;;;;2.50;2.05;;;;;;;;;;4965697;28;20042;-73
2022/08/08 00:58:22;;;;;;;4.25;2.28;;;;;;;;;;5036961;28;20084;-71
2022/08/08 01:01:19;;;;;;;2.53;2.30;;;;;;;;;;5012188;28;20171;-71
2022/08/08 01:04:01;;;;;;;;;;;;;;;;;;5042661;28;20144;-71
2022/08/08 01:07:00;;;;;;;2.70;2.50;;;;;;;;;;5041828;28;20066;-72
2022/08/08 01:09:44;;;;;;;3.40;2.35;;;;;;;;;;5041366;28;20541;-71
2022/08/08 01:12:37;;;;;;;4.20;2.72;;;;;;;;;;5041454;28;20051;-71
2022/08/08 01:15:25;;;;;;;3.92;2.63;;;;;;;;;;5058377;28;20155;-72
2022/08/08 01:18:08;;;;;;;2.50;2.30;;;;;;;;;;5041840;28;20045;-71
2022/08/08 01:21:01;;;;;;;3.17;2.88;;;;;;;;;;5024261;28;20103;-71
2022/08/08 01:23:42;;;;;;;4.50;2.28;;;;;;;;;;5043063;28;20138;-71
2022/08/08 01:26:26;;;;;;;2.83;2.10;;;;;;;;;;5023917;28;20088;-71
2022/08/08 01:29:26;;;;;;;3.58;2.25;;;;;;;;;;5043016;28;20045;-71
2022/08/08 01:32:40;;;;;;;3.10;2.47;;;;;;;;;;5041069;28;20126;-71
2022/08/08 01:35:20;;;;;;;5.45;2.42;;;;;;;;;;5017242;28;20037;-72
2022/08/08 01:38:30;;;;;;;2.28;2.13;;;;;;;;;;5041077;28;20056;-71
2022/08/08 01:41:18;;;;;;;3.20;2.00;;;;;;;;;;5013194;28;20584;-71
2022/08/08 01:44:29;;;;;;;4.03;2.30;;;;;;;;;;5041415;28;20060;-71
2022/08/08 01:47:20;;;;;;;5.28;2.75;;;;;;;;;;4990531;28;21084;-71
2022/08/08 01:50:09;;;;;;;2.67;2.30;;;;;;;;;;5041150;28;20052;-71
2022/08/08 01:52:58;;;;;;;3.72;2.40;;;;;;;;;;5039185;28;20124;-71
2022/08/08 01:55:47;;;;;;;4.75;2.90;;;;;;;;;;5041478;28;20107;-71
2022/08/08 01:58:55;;;;;;;3.88;2.90;;;;;;;;;;5037948;28;20077;-72
2022/08/08 02:01:45;;;;;;;3.92;2.75;;;;;;;;;;5024859;28;20053;-71
2022/08/08 02:04:36;;;;;;;3.83;2.90;;;;;;;;;;5023618;28;20048;-71
2022/08/08 02:07:08;;;;;;;2.72;2.50;;;;;;;;;;5040781;28;20056;-72
2022/08/08 02:09:50;;;;;;;3.78;2.83;;;;;;;;;;5040752;28;20045;-72
2022/08/08 02:12:30;;;;;;;3.10;2.90;;;;;;;;;;5056801;28;20144;-71
2022/08/08 02:15:59;;;;;;;4.22;3.08;;;;;;;;;;5040009;28;20041;-72
2022/08/08 02:18:39;;;;;;;9.18;3.30;;;;;;;;;;4956984;28;20046;-70
2022/08/08 02:24:16;;;;;;;5.88;3.50;;;;;;;;;;5036134;28;20052;-71
2022/08/08 02:27:16;;;;;;;4.03;3.25;;;;;;;;;;4997706;28;20137;-70
2022/08/08 02:30:03;;;;;;;4.30;3.58;;;;;;;;;;5040814;28;20045;-70
2022/08/08 02:32:55;;;;;;;3.97;3.58;;;;;;;;;;5040098;28;20056;-71
2022/08/08 02:35:45;;;;;;;6.00;3.30;;;;;;;;;;5041786;28;20045;-71
2022/08/08 02:38:26;;;;;;;3.40;3.10;;;;;;;;;;5039736;28;20049;-71
2022/08/08 02:41:18;;;;;;;3.40;3.10;;;;;;;;;;5039987;28;20053;-72
2022/08/08 02:44:16;;;;;;;3.53;3.22;;;;;;;;;;5040238;28;20076;-72
2022/08/08 02:46:56;;;;;;;3.70;3.40;;;;;;;;;;5006662;28;20507;-72
2022/08/08 02:49:46;;;;;;;5.72;4.00;;;;;;;;;;5040379;28;20053;-75
2022/08/08 02:52:46;;;;;;;4.25;3.40;;;;;;;;;;5039421;28;20056;-74
2022/08/08 02:55:36;;;;;;;3.97;3.60;;;;;;;;;;5056636;28;20406;-74
2022/08/08 02:58:24;;;;;;;3.88;3.55;;;;;;;;;;5042538;28;20049;-73
2022/08/08 03:01:40;;;;;;;4.72;3.63;;;;;;;;;;5009666;28;20048;-73
2022/08/08 03:04:24;;;;;;;4.47;3.28;;;;;;;;;;4995315;28;20041;-74
2022/08/08 03:07:26;;;;;;;3.97;3.58;;;;;;;;;;5039243;28;20128;-71
2022/08/08 03:10:11;;;;;;;5.20;3.55;;;;;;;;;;5038774;28;20734;-71
2022/08/08 03:12:55;;;;;;;4.00;3.60;;;;;;;;;;5039440;28;20044;-72
2022/08/08 03:16:15;;;;;;;3.83;3.53;;;;;;;;;;5038859;28;20051;-71
2022/08/08 03:18:53;;;;;;;4.25;3.00;;;;;;;;;;4993591;28;20989;-71
2022/08/08 03:21:19;;;;;;;4.25;3.25;;;;;;;;;;5054926;28;20080;-71
2022/08/08 03:23:45;;;;;;;3.95;3.60;;;;;;;;;;5039485;28;20076;-71
2022/08/08 03:26:18;;;;;;;4.68;3.53;;;;;;;;;;5028035;28;20525;-71
2022/08/08 03:28:52;;;;;;;4.43;3.78;;;;;;;;;;5039725;28;20045;-71
2022/08/08 03:34:07;;;;;;;4.40;3.78;;;;;;;;;;5038999;28;20499;-71
2022/08/08 03:36:40;;;;;;;6.60;3.85;;;;;;;;;;5022589;28;20103;-74
2022/08/08 03:39:06;;;;;;;4.43;3.53;;;;;;;;;;5039393;28;20041;-72
2022/08/08 03:41:35;;;;;;;5.18;3.70;;;;;;;;;;5022308;28;20760;-71
2022/08/08 03:44:03;;;;;;;6.38;4.07;;;;;;;;;;5023678;28;20522;-74
2022/08/08 03:46:46;;;;;;;6.38;3.63;;;;;;;;;;5040049;28;20053;-73
2022/08/08 03:49:25;;;;;;;4.55;3.60;;;;;;;;;;5038807;28;20071;-71
2022/08/08 03:51:53;;;;;;;4.07;3.65;;;;;;;;;;5037993;28;20411;-74
2022/08/08 03:54:23;;;;;;;8.13;3.70;;;;;;;;;;5037925;28;20443;-73
2022/08/08 03:56:49;;;;;;;6.25;4.30;;;;;;;;;;5036042;28;20063;-72
2022/08/08 03:59:15;;;;;;;4.63;3.97;;;;;;;;;;5038373;28;20049;-72
2022/08/08 04:01:43;;;;;;;6.05;4.20;;;;;;;;;;5037134;28;20079;-72
2022/08/08 04:04:09;;;;;;;8.52;3.90;;;;;;;;;;5038107;28;20057;-73
2022/08/08 04:06:38;;;;;;;5.43;3.90;;;;;;;;;;5038544;28;20056;-72
2022/08/08 04:09:07;;;;;;;4.85;4.03;;;;;;;;;;5037085;28;20148;-72
2022/08/08 04:11:37;;;;;;;7.22;4.30;;;;;;;;;;5037618;28;20062;-74
2022/08/08 04:14:03;;;;;;;8.68;4.32;;;;;;;;;;5039107;28;20060;-74
2022/08/08 04:16:28;;;;;;;5.63;4.25;;;;;;;;;;5037406;28;20047;-71
2022/08/08 04:18:54;;;;;;;6.07;4.13;;;;;;;;;;5037744;28;20441;-73
2022/08/08 04:21:21;;;;;;;6.65;4.22;;;;;;;;;;5022080;28;20621;-71
2022/08/08 04:23:46;;;;;;;7.38;4.30;;;;;;;;;;5038291;28;20048;-71
2022/08/08 04:26:12;;;;;;;4.97;4.32;;;;;;;;;;5038519;28;20502;-72
2022/08/08 04:28:38;;;;;;;5.47;3.97;;;;;;;;;;5038390;28;20187;-71
2022/08/08 04:31:04;;;;;;;4.40;4.00;;;;;;;;;;5037568;28;20398;-70
2022/08/08 04:33:29;;;;;;;6.80;4.15;;;;;;;;;;5038232;28;20068;-71
2022/08/08 04:35:55;;;;;;;7.00;4.28;;;;;;;;;;5038946;28;20048;-71
2022/08/08 04:38:22;;;;;;;4.85;4.00;;;;;;;;;;5037888;28;20811;-70
2022/08/08 04:40:50;;;;;;;5.18;3.85;;;;;;;;;;5038160;28;20418;-70
2022/08/08 04:43:15;;;;;;;4.45;4.05;;;;;;;;;;5038495;28;20110;-71
2022/08/08 04:45:47;;;;;;;8.32;3.70;;;;;;;;;;5038170;28;20506;-70
2022/08/08 04:48:13;;;;;;;5.93;4.03;;;;;;;;;;5021080;28;20124;-70
2022/08/08 04:50:39;;;;;;;4.07;3.67;;;;;;;;;;5029502;28;20138;-70
2022/08/08 04:53:09;;;;;;;5.75;4.00;;;;;;;;;;5038326;28;20858;-70
2022/08/08 04:55:35;;;;;;;6.68;4.05;;;;;;;;;;5021983;28;20377;-70
2022/08/08 04:58:01;;;;;;;7.65;4.15;;;;;;;;;;5037979;28;20475;-70
2022/08/08 05:00:26;;;;;;;6.93;4.05;;;;;;;;;;5037791;28;20040;-70
2022/08/08 05:02:52;;;;;;;5.72;3.97;;;;;;;;;;5021410;28;20044;-69
2022/08/08 05:05:18;;;;;;;6.32;4.00;;;;;;;;;;5038367;28;20083;-69
2022/08/08 05:07:45;;;;;;;4.82;3.80;;;;;;;;;;5038265;28;20637;-70
2022/08/08 05:10:12;;;;;;;4.35;3.50;;;;;;;;;;5035864;28;20052;-70
2022/08/08 05:12:37;;;;;;;6.88;3.53;;;;;;;;;;5037260;28;20040;-72
2022/08/08 05:15:03;;;;;;;4.50;3.50;;;;;;;;;;5037356;28;20048;-72
2022/08/08 05:17:29;;;;;;;3.30;3.00;;;;;;;;;;5037992;28;20053;-73
2022/08/08 05:19:54;;;;;;;5.15;2.95;;;;;;;;;;5038442;28;20049;-69
2022/08/08 05:22:26;;;;;;;5.03;2.97;;;;;;;;;;5036488;28;20048;-70
2022/08/08 05:24:52;;;;;;;5.78;2.95;;;;;;;;;;5038280;28;20041;-70
2022/08/08 05:27:20;;;;;;;3.55;2.35;;;;;;;;;;5020095;28;20149;-70
2022/08/08 05:29:46;;;;;;;3.42;2.72;;;;;;;;;;5038374;28;20601;-70
2022/08/08 05:32:11;;;;;;;6.20;3.13;;;;;;;;;;5039671;28;20049;-70
2022/08/08 05:34:47;;;;;;;3.13;2.60;;;;;;;;;;5042675;28;20516;-70
2022/08/08 05:37:20;;;;;;;4.85;2.85;;;;;;;;;;5042792;28;20105;-69
2022/08/08 05:39:50;;;;;;;2.65;2.45;;;;;;;;;;5041979;28;20514;-69
2022/08/08 05:42:16;;;;;;;3.28;2.97;;;;;;;;;;5039644;28;20122;-70
2022/08/08 05:44:47;;;;;;;4.65;2.80;;;;;;;;;;5038820;28;20165;-69
2022/08/08 05:47:15;;;;;;;3.58;2.53;;;;;;;;;;5031271;28;20418;-71
2022/08/08 05:49:42;;;;;;;2.92;2.67;;;;;;;;;;5020879;28;20049;-69
2022/08/08 05:52:09;;;;;;;3.75;2.63;;;;;;;;;;5038246;28;20048;-71
2022/08/08 05:54:34;;;;;;;5.47;2.90;;;;;;;;;;5036837;28;20057;-70
2022/08/08 05:57:01;;;;;;;2.72;2.53;;;;;;;;;;5037225;28;20126;-70
2022/08/08 05:59:29;;;;;;;5.35;2.40;;;;;;;;;;5029025;28;21048;-69
2022/08/08 06:01:55;;;;;;;4.07;2.55;;;;;;;;;;5020764;28;20063;-70
2022/08/08 06:04:28;;;;;;;2.65;2.45;;;;;;;;;;5039084;28;20886;-69
2022/08/08 06:07:02;;;;;;;5.85;2.63;;;;;;;;;;5037980;28;20055;-70
2022/08/08 06:09:33;;;;;;;3.80;2.50;;;;;;;;;;5037218;28;20167;-70
2022/08/08 06:12:02;;;;;;;4.00;2.70;;;;;;;;;;5038316;28;20048;-70
2022/08/08 06:14:30;;;;;;;7.10;2.80;;;;;;;;;;5010698;28;20117;-70
2022/08/08 06:17:00;;;;;;;4.50;2.60;;;;;;;;;;5038317;28;20207;-70
2022/08/08 06:19:37;;;;;;;3.75;2.53;;;;;;;;;;5023731;28;20133;-70
2022/08/08 06:22:02;;;;;;;4.05;3.17;;;;;;;;;;5037378;28;20136;-73
2022/08/08 06:24:37;;;;;;;3.00;2.70;;;;;;;;;;5038182;28;20041;-71
2022/08/08 06:27:08;;;;;;;3.75;2.63;;;;;;;;;;5039660;28;20045;-73
2022/08/08 06:29:43;;;;;;;3.97;2.90;;;;;;;;;;5042534;28;20103;-71
2022/08/08 06:32:16;;;;;;;5.65;3.67;;;;;;;;;;5039473;28;20495;-71
2022/08/08 06:34:51;;;;;;;5.82;2.85;;;;;;;;;;5040953;28;20052;-74
2022/08/08 06:37:21;;;;;;;3.53;3.00;;;;;;;;;;5047039;28;20049;-73
2022/08/08 06:39:50;;;;;;;4.23;2.60;;;;;;;;;;5033828;28;20041;-71
2022/08/08 06:42:17;;;;;;;2.90;2.70;;;;;;;;;;5039519;28;20041;-72
2022/08/08 06:44:49;;;;;;;3.03;2.72;;;;;;;;;;5024897;28;20095;-72
2022/08/08 06:47:16;;;;;;;4.32;2.80;;;;;;;;;;5040635;28;20040;-72
2022/08/08 06:49:43;;;;;;;3.83;2.55;;;;;;;;;;5022983;28;20041;-72
2022/08/08 06:52:09;;;;;;;4.90;2.80;;;;;;;;;;5039826;28;20066;-74
2022/08/08 06:54:36;;;;;;;5.47;2.95;;;;;;;;;;5023394;28;20069;-75
2022/08/08 06:57:02;;;;;;;4.15;3.00;;;;;;;;;;5038795;28;20136;-73
2022/08/08 06:59:28;;;;;;;3.53;2.85;;;;;;;;;;5039225;28;20045;-71
2022/08/08 07:02:03;;;;;;;7.88;2.85;;;;;;;;;;5034417;28;20164;-72
2022/08/08 07:04:33;;;;;;;3.65;2.72;;;;;;;;;;5038698;28;20499;-72
2022/08/08 07:07:01;;;;;;;2.85;2.40;;;;;;;;;;5038823;28;20383;-70
2022/08/08 07:09:37;;;;;;;2.78;2.50;;;;;;;;;;5039183;28;20045;-71
2022/08/08 07:12:07;;;;;;;3.35;2.70;;;;;;;;;;5038129;28;20415;-70
2022/08/08 07:14:52;;;;;;;5.82;2.80;;;;;;;;;;5009013;28;20052;-71
2022/08/08 07:17:24;;;;;;;6.63;2.97;;;;;;;;;;5036630;28;20044;-72
2022/08/08 07:20:07;;;;;;;5.78;2.92;;;;;;;;;;5021067;28;20041;-72
2022/08/08 07:22:52;;;;;;;3.97;2.70;;;;;;;;;;5037076;28;20045;-73
2022/08/08 07:25:20;;;;;;;6.85;3.03;;;;;;;;;;5038547;28;20146;-72
2022/08/08 07:27:49;;;;;;;3.53;2.60;;;;;;;;;;5039601;28;20403;-72
2022/08/08 07:30:16;;;;;;;4.28;3.35;;;;;;;;;;5041784;28;20131;-71
2022/08/08 07:32:41;;;;;;;2.63;2.42;;;;;;;;;;5038860;28;20049;-73
2022/08/08 07:35:11;;;;;;;2.97;2.67;;;;;;;;;;5037104;28;20103;-71
2022/08/08 07:37:42;;;;;;;4.95;3.22;;;;;;;;;;5038076;28;20029;-71
2022/08/08 07:40:09;;;;;;;3.05;2.72;;;;;;;;;;5056330;28;20415;-72
2022/08/08 07:42:36;;;;;;;3.42;2.38;;;;;;;;;;5038241;28;20045;-73
2022/08/08 07:45:06;;;;;;;4.18;2.70;;;;;;;;;;5037393;28;20074;-73
2022/08/08 07:47:35;;;;;;;3.17;2.60;;;;;;;;;;5037590;28;20446;-73
2022/08/08 07:50:02;;;;;;;4.03;2.90;;;;;;;;;;5038593;28;20053;-71
2022/08/08 07:52:29;;;;;;;2.95;2.65;;;;;;;;;;5037742;28;20114;-72
2022/08/08 07:55:09;;;;;;;4.40;2.45;;;;;;;;;;5021127;28;20063;-72
2022/08/08 07:58:00;;;;;;;3.55;2.72;;;;;;;;;;5041481;28;20433;-73
2022/08/08 08:00:43;;;;;;;5.45;2.60;;;;;;;;;;5040783;28;20049;-71
2022/08/08 08:03:31;;;;;;;6.15;2.60;;;;;;;;;;5039176;28;20110;-69
2022/08/08 08:05:59;;;;;;;6.32;2.45;;;;;;;;;;5041922;28;20507;-70
2022/08/08 08:08:38;;;;;;;3.72;2.40;;;;;;;;;;5039047;28;21016;-71
2022/08/08 08:11:13;;;;;;;7.20;2.92;;;;;;;;;;5038401;28;20072;-70
2022/08/08 08:14:07;;;;;;;3.80;2.45;;;;;;;;;;5038969;28;20045;-70
2022/08/08 08:16:39;;;;;;;3.53;2.50;;;;;;;;;;5038025;28;20449;-74
2022/08/08 08:19:07;;;;;;;7.03;2.25;;;;;;;;;;5024037;28;20586;-72
2022/08/08 08:21:40;;;;;;;3.03;2.10;;;;;;;;;;5037729;28;20129;-72
2022/08/08 08:24:07;;;;;;;2.33;1.95;;;;;;;;;;5039539;28;20072;-75
2022/08/08 08:26:34;;;;;;;6.88;2.25;;;;;;;;;;5021584;28;20595;-73
2022/08/08 08:29:00;;;;;;;4.20;2.15;;;;;;;;;;5038126;28;20055;-73
2022/08/08 08:31:26;;;;;;;2.42;2.05;;;;;;;;;;5036684;28;20045;-71
2022/08/08 08:33:52;;;;;;;3.60;1.95;;;;;;;;;;5038370;28;20047;-72
2022/08/08 08:36:18;;;;;;;4.78;1.88;;;;;;;;;;5037696;28;20117;-73
2022/08/08 08:38:44;;;;;;;7.65;1.90;;;;;;;;;;5021372;28;20045;-72
2022/08/08 08:41:12;;;;;;;3.55;1.98;;;;;;;;;;5038292;28;20593;-71
2022/08/08 08:43:41;;;;;;;6.82;2.15;;;;;;;;;;5035474;28;20045;-74
2022/08/08 08:46:08;;;;;;;3.08;2.00;;;;;;;;;;5037272;28;20463;-71
2022/08/08 08:48:35;;;;;;;3.60;1.80;;;;;;;;;;5037015;28;20917;-73
2022/08/08 08:51:02;;;;;;;2.55;1.92;;;;;;;;;;5037128;28;20169;-73
2022/08/08 08:53:33;;;;;;;2.58;2.08;;;;;;;;;;5037248;28;20041;-71
2022/08/08 08:56:13;;;;;;;4.45;2.08;;;;;;;;;;5037486;28;20536;-71
2022/08/08 08:58:43;;;;;;;4.93;2.00;;;;;;;;;;5038032;28;20041;-73
2022/08/08 09:01:15;;;;;;;4.03;2.00;;;;;;;;;;5036881;28;20044;-73
2022/08/08 09:03:49;;;;;;;6.75;2.20;;;;;;;;;;5038397;28;20407;-73
2022/08/08 09:06:16;;;;;;;1.70;1.60;;;;;;;;;;5039906;28;20045;-72
2022/08/08 09:08:43;;;;;;;4.40;1.67;;;;;;;;;;5042357;28;20052;-71
2022/08/08 09:11:09;;;;;;;2.20;2.00;;;;;;;;;;5041154;28;20072;-71
2022/08/08 09:13:37;;;;;;;2.10;1.90;;;;;;;;;;5041605;28;20049;-71
2022/08/08 09:16:03;;;;;;;4.60;2.05;;;;;;;;;;5043286;28;20551;-70
2022/08/08 09:18:30;;;;;;;5.45;1.90;;;;;;;;;;5041353;28;20598;-72
2022/08/08 09:20:57;;;;;;;5.57;2.15;;;;;;;;;;5040423;28;20139;-72
2022/08/08 09:23:24;;;;;;;3.85;1.70;;;;;;;;;;5042140;28;20051;-71
2022/08/08 09:25:55;;;;;;;3.20;1.95;;;;;;;;;;5042065;28;20060;-73
2022/08/08 09:28:27;;;;;;;2.70;1.40;;;;;;;;;;5040644;28;20045;-70
2022/08/08 09:30:52;;;;;;;6.40;1.90;;;;;;;;;;5041331;28;20579;-72
2022/08/08 09:33:23;;;;;;;3.78;2.22;;;;;;;;;;5041140;28;20224;-73
2022/08/08 09:35:50;;;;;;;3.88;2.03;;;;;;;;;;5043413;28;20047;-69
2022/08/08 09:38:50;;;;;;;2.25;2.05;;;;;;;;;;5041248;28;20064;-71
2022/08/08 09:41:32;;;;;;;4.38;1.98;;;;;;;;;;5041560;28;20044;-72
2022/08/08 09:44:02;;;;;;;2.67;1.88;;;;;;;;;;5043113;28;20052;-73
2022/08/08 09:46:29;;;;;;;5.35;2.53;;;;;;;;;;5041156;28;20673;-73
2022/08/08 09:48:56;;;;;;;5.88;2.00;;;;;;;;;;5043055;28;20045;-71
2022/08/08 09:51:28;;;;;;;3.20;1.50;;;;;;;;;;5041034;28;20048;-70
2022/08/08 09:54:00;;;;;;;4.20;1.60;;;;;;;;;;5042826;28;20048;-72
2022/08/08 09:56:33;;;;;;;2.75;1.67;;;;;;;;;;5040137;28;20044;-71
2022/08/08 09:59:04;;;;;;;3.05;1.55;;;;;;;;;;5042473;28;20056;-72
2022/08/08 10:01:31;;;;;;;2.50;1.30;;;;;;;;;;5042534;28;20956;-72
2022/08/08 10:03:58;;;;;;;3.95;2.08;;;;;;;;;;5041952;28;20040;-73
2022/08/08 10:06:24;;;;;;;3.53;1.85;;;;;;;;;;5022767;28;20601;-70
2022/08/08 10:08:51;;;;;;;5.10;2.00;;;;;;;;;;5042703;28;20551;-73
2022/08/08 10:11:22;;;;;;;2.05;1.63;;;;;;;;;;5040868;28;20088;-71
2022/08/08 10:13:58;;;;;;;2.33;1.50;;;;;;;;;;5041168;28;20060;-71
2022/08/08 10:16:36;;;;;;;3.58;1.63;;;;;;;;;;5039432;28;20062;-71
2022/08/08 10:19:07;;;;;;;1.50;1.40;;;;;;;;;;5041975;28;20049;-72
2022/08/08 10:21:34;;;;;;;2.00;1.63;;;;;;;;;;5040838;28;20053;-71
2022/08/08 10:24:07;;;;;;;2.10;1.80;;;;;;;;;;5042248;28;20072;-74
2022/08/08 10:27:05;;;;;;;2.17;1.85;;;;;;;;;;5041405;28;20063;-71
2022/08/08 10:29:51;;;;;;;4.30;2.00;;;;;;;;;;5029519;28;20075;-73
2022/08/08 10:32:36;;;;;;;3.17;2.00;;;;;;;;;;5040419;28;20041;-73
2022/08/08 10:35:04;;;;;;;5.18;2.20;;;;;;;;;;5041852;28;20037;-73
2022/08/08 10:37:32;;;;;;;3.63;1.70;;;;;;;;;;5041793;28;20091;-71
2022/08/08 10:40:00;;;;;;;2.45;1.77;;;;;;;;;;5040856;28;20060;-71
2022/08/08 10:42:33;;;;;;;3.30;1.75;;;;;;;;;;5040760;28;20925;-74
2022/08/08 10:45:05;;;;;;;3.63;1.63;;;;;;;;;;5041293;28;20045;-73
2022/08/08 10:47:31;;;;;;;3.67;1.60;;;;;;;;;;5041583;28;20044;-71
2022/08/08 10:49:58;;;;;;;2.40;1.60;;;;;;;;;;5041509;28;20045;-71
2022/08/08 10:52:24;;;;;;;1.50;1.40;;;;;;;;;;5039117;28;20152;-71
2022/08/08 10:55:00;;;;;;;2.03;1.40;;;;;;;;;;5040588;28;20148;-72
2022/08/08 10:57:26;;;;;;;1.63;1.52;;;;;;;;;;5040128;28;20466;-74
2022/08/08 10:59:56;;;;;;;3.85;1.52;;;;;;;;;;5041958;28;20129;-72
2022/08/08 11:02:23;;;;;;;1.60;1.40;;;;;;;;;;5038373;28;20924;-72
2022/08/08 11:04:49;;;;;;;6.18;1.70;;;;;;;;;;5041759;28;20032;-73
2022/08/08 11:07:24;;;;;;;1.88;1.42;;;;;;;;;;5041391;28;20048;-71
2022/08/08 11:09:49;;;;;;;2.00;1.40;;;;;;;;;;5041099;28;20052;-73
2022/08/08 11:12:15;;;;;;;4.00;1.27;;;;;;;;;;5039795;28;20049;-74
2022/08/08 11:14:58;;;;;;;1.70;1.27;;;;;;;;;;5039928;28;21080;-71
2022/08/08 11:17:27;;;;;;;1.40;1.30;;;;;;;;;;5041319;28;20040;-72
2022/08/08 11:19:53;;;;;;;2.65;1.45;;;;;;;;;;5041075;28;20041;-71
2022/08/08 11:22:28;;;;;;;4.45;1.60;;;;;;;;;;5040035;28;20041;-71
2022/08/08 11:24:59;;;;;;;1.73;1.63;;;;;;;;;;5040145;28;20041;-72
2022/08/08 11:27:30;;;;;;;2.60;1.60;;;;;;;;;;5040601;28;21129;-72
2022/08/08 11:29:57;;;;;;;3.35;1.52;;;;;;;;;;5039401;28;20348;-71
2022/08/08 11:32:29;;;;;;;2.30;1.58;;;;;;;;;;5039591;28;20110;-72
2022/08/08 11:35:08;;;;;;;4.32;1.70;;;;;;;;;;5039978;28;20037;-72
2022/08/08 11:37:34;;;;;;;4.70;1.80;;;;;;;;;;5040670;28;20060;-73
2022/08/08 11:40:01;;;;;;;1.95;1.38;;;;;;;;;;5039101;28;20063;-72
2022/08/08 11:42:28;;;;;;;3.95;1.60;;;;;;;;;;5039891;28;20041;-71
2022/08/08 11:44:55;;;;;;;2.53;1.55;;;;;;;;;;5040752;28;20052;-72
2022/08/08 11:47:22;;;;;;;1.73;1.50;;;;;;;;;;5039738;28;20060;-73
2022/08/08 11:49:52;;;;;;;3.05;1.90;;;;;;;;;;5039177;28;20068;-72
2022/08/08 11:52:18;;;;;;;5.60;1.40;;;;;;;;;;5039283;28;20051;-71
2022/08/08 11:54:44;;;;;;;3.42;1.55;;;;;;;;;;5040931;28;20501;-71
2022/08/08 11:57:20;;;;;;;1.92;1.50;;;;;;;;;;5039511;28;20103;-72
2022/08/08 12:00:06;;;;;;;3.00;1.55;;;;;;;;;;5040903;28;20072;-72
2022/08/08 12:02:56;;;;;;;2.08;1.42;;;;;;;;;;5036950;28;20412;-71
2022/08/08 12:05:33;;;;;;;1.67;1.27;;;;;;;;;;5038455;28;20049;-71
2022/08/08 12:07:58;;;;;;;2.42;1.80;;;;;;;;;;5039223;28;20186;-74
2022/08/08 12:10:27;;;;;;;1.30;1.20;;;;;;;;;;5039698;28;20139;-73
2022/08/08 12:13:00;;;;;;;3.25;1.50;;;;;;;;;;5039802;28;20055;-71
2022/08/08 12:15:27;;;;;;;1.35;1.25;;;;;;;;;;5039695;28;20148;-71
2022/08/08 12:17:53;;;;;;;2.65;1.65;;;;;;;;;;5038299;28;20045;-72
2022/08/08 12:20:18;;;;;;;2.30;1.40;;;;;;;;;;5039136;28;20049;-72
2022/08/08 12:22:50;;;;;;;5.75;1.58;;;;;;;;;;5039504;28;20148;-71
2022/08/08 12:25:25;;;;;;;2.78;1.40;;;;;;;;;;5039494;28;20130;-71
2022/08/08 12:27:52;;;;;;;5.85;2.15;;;;;;;;;;5040215;28;20060;-71
2022/08/08 12:30:30;;;;;;;4.35;1.40;;;;;;;;;;5038334;28;20937;-71
2022/08/08 12:32:58;;;;;;;3.67;1.30;;;;;;;;;;5038778;28;20056;-70
2022/08/08 12:35:26;;;;;;;1.65;1.55;;;;;;;;;;5039874;28;20045;-70
2022/08/08 12:38:17;;;;;;;2.80;1.50;;;;;;;;;;5039511;28;20040;-71
2022/08/08 12:40:48;;;;;;;1.63;1.20;;;;;;;;;;5017039;28;20048;-71
2022/08/08 12:43:18;;;;;;;4.00;1.40;;;;;;;;;;5039843;28;20733;-71
2022/08/08 12:45:45;;;;;;;3.00;1.40;;;;;;;;;;5039023;28;20152;-70
2022/08/08 12:48:24;;;;;;;1.70;1.42;;;;;;;;;;5039023;28;20095;-72
2022/08/08 12:50:53;;;;;;;1.27;1.20;;;;;;;;;;5039425;28;20049;-71
2022/08/08 12:53:23;;;;;;;5.82;1.50;;;;;;;;;;5039270;28;20055;-72
2022/08/08 12:56:05;;;;;;;1.67;1.30;;;;;;;;;;5039962;28;20533;-71
2022/08/08 12:58:43;;;;;;;5.47;1.75;;;;;;;;;;5038834;28;20049;-72
2022/08/08 13:01:09;;;;;;;3.00;1.40;;;;;;;;;;5055064;28;20577;-71
2022/08/08 13:03:36;;;;;;;2.00;1.40;;;;;;;;;;5039247;28;20067;-71
2022/08/08 13:06:06;;;;;;;2.20;1.55;;;;;;;;;;5039776;28;20063;-72
2022/08/08 13:08:47;;;;;;;1.40;1.10;;;;;;;;;;5037739;28;20049;-71
2022/08/08 13:11:25;;;;;;;1.75;1.20;;;;;;;;;;5039489;28;20238;-70
2022/08/08 13:13:58;;;;;;;1.20;1.10;;;;;;;;;;5038756;28;20056;-71
2022/08/08 13:16:24;;;;;;;1.55;1.40;;;;;;;;;;5039163;28;20049;-71
2022/08/08 13:18:49;;;;;;;4.03;1.50;;;;;;;;;;5039403;28;20052;-71
2022/08/08 13:21:15;;;;;;;4.47;1.23;;;;;;;;;;5039638;28;20099;-72
2022/08/08 13:23:41;;;;;;;2.53;1.15;;;;;;;;;;5037753;28;20173;-69
2022/08/08 13:26:07;;;;;;;3.00;1.20;;;;;;;;;;5037062;28;20088;-71
2022/08/08 13:28:33;;;;;;;1.40;1.20;;;;;;;;;;5037360;28;20056;-72
2022/08/08 13:31:02;;;;;;;2.35;1.17;;;;;;;;;;5037853;28;20053;-71
2022/08/08 13:33:29;;;;;;;4.70;1.20;;;;;;;;;;5036873;28;20048;-71
2022/08/08 13:35:55;;;;;;;4.05;1.35;;;;;;;;;;5038984;28;20037;-70
2022/08/08 13:38:21;;;;;;;3.83;1.20;;;;;;;;;;5038863;28;20088;-70
2022/08/08 13:40:47;;;;;;;5.35;1.30;;;;;;;;;;5039400;28;20592;-71
2022/08/08 13:43:13;;;;;;;3.83;1.30;;;;;;;;;;5039169;28;20056;-71
2022/08/08 13:45:39;;;;;;;3.15;1.20;;;;;;;;;;5037345;28;20055;-71
2022/08/08 13:48:12;;;;;;;1.80;1.50;;;;;;;;;;5039022;28;20045;-71
2022/08/08 13:50:46;;;;;;;2.55;1.25;;;;;;;;;;5038504;28;20053;-72
2022/08/08 13:53:11;;;;;;;5.90;1.30;;;;;;;;;;5042869;28;20051;-71
2022/08/08 13:55:37;;;;;;;1.63;1.30;;;;;;;;;;5041922;28;20048;-72
2022/08/08 13:58:04;;;;;;;1.48;1.13;;;;;;;;;;5043086;28;20155;-70
2022/08/08 14:00:38;;;;;;;1.55;1.17;;;;;;;;;;5042418;28;20392;-70
2022/08/08 14:03:03;;;;;;;3.88;1.20;;;;;;;;;;5042435;28;20514;-69
2022/08/08 14:05:32;;;;;;;4.53;1.30;;;;;;;;;;5042668;28;20037;-70
2022/08/08 14:07:59;;;;;;;1.70;1.05;;;;;;;;;;5041849;28;20049;-70
2022/08/08 14:10:24;;;;;;;1.95;1.30;;;;;;;;;;5042200;28;20060;-71
2022/08/08 14:12:52;;;;;;;1.80;1.23;;;;;;;;;;5042476;28;20063;-71
2022/08/08 14:15:31;;;;;;;4.00;1.60;;;;;;;;;;5042435;28;20442;-71
2022/08/08 14:18:02;;;;;;;2.22;1.20;;;;;;;;;;5041286;28;20471;-71
2022/08/08 14:20:40;;;;;;;2.42;1.38;;;;;;;;;;5041265;28;20044;-72
2022/08/08 14:23:12;;;;;;;1.50;1.00;;;;;;;;;;5042435;28;20060;-69
2022/08/08 14:25:55;;;;;;;3.88;1.20;;;;;;;;;;5041782;28;20052;-70
2022/08/08 14:28:21;;;;;;;4.97;1.27;;;;;;;;;;5040476;28;20129;-72
2022/08/08 14:30:48;;;;;;;2.25;1.27;;;;;;;;;;5042237;28;20064;-70
2022/08/08 14:33:27;;;;;;;4.78;1.40;;;;;;;;;;5042210;28;20048;-73
2022/08/08 14:36:00;;;;;;;1.80;1.10;;;;;;;;;;5042009;28;20083;-72
2022/08/08 14:38:30;;;;;;;1.38;1.20;;;;;;;;;;5041635;28;20103;-71
2022/08/08 14:40:56;;;;;;;6.57;1.20;;;;;;;;;;5039952;28;20049;-72
2022/08/08 14:43:26;;;;;;;4.00;1.35;;;;;;;;;;5042173;28;20045;-72
2022/08/08 14:46:05;;;;;;;2.45;1.10;;;;;;;;;;5041603;28;20049;-72
2022/08/08 14:48:48;;;;;;;1.33;1.23;;;;;;;;;;5041623;28;20060;-71
2022/08/08 14:51:15;;;;;;;5.28;1.55;;;;;;;;;;5040410;28;20045;-72
2022/08/08 14:53:42;;;;;;;3.90;1.30;;;;;;;;;;5041628;28;20507;-71
2022/08/08 14:56:08;;;;;;;1.60;1.05;;;;;;;;;;5041624;28;20045;-72
2022/08/08 14:58:34;;;;;;;5.10;1.20;;;;;;;;;;5041186;28;20052;-70
2022/08/08 15:01:01;;;;;;;1.48;1.00;;;;;;;;;;5041710;28;20057;-70
2022/08/08 15:03:26;;;;;;;8.00;1.35;;;;;;;;;;5040074;28;20132;-70
2022/08/08 15:05:52;;;;;;;4.20;1.33;;;;;;;;;;5041399;28;20037;-71
2022/08/08 15:08:17;;;;;;;3.17;1.10;;;;;;;;;;5041167;28;20052;-71
2022/08/08 15:10:43;;;;;;;3.47;1.20;;;;;;;;;;5041215;28;20117;-72
2022/08/08 15:13:12;;;;;;;3.33;1.10;;;;;;;;;;5040703;28;20049;-71
2022/08/08 15:15:38;;;;;;;4.35;1.30;;;;;;;;;;5041483;28;20045;-71
2022/08/08 15:18:03;;;;;;;3.05;1.10;;;;;;;;;;5041080;28;20190;-70
2022/08/08 15:20:29;;;;;;;1.60;1.40;;;;;;;;;;5040859;28;20139;-70
2022/08/08 15:22:54;;;;;;;2.05;1.20;;;;;;;;;;5041265;28;20044;-71
2022/08/08 15:25:19;;;;;;;1.42;1.20;;;;;;;;;;5040489;28;20057;-71
2022/08/08 15:27:45;;;;;;;1.85;1.30;;;;;;;;;;5039661;28;20095;-71
2022/08/08 15:30:13;;;;;;;1.48;1.20;;;;;;;;;;5040131;28;20080;-71